Accueil
METAR-TAF:

METAR-TAF

Aéroports :

Aéroport international de Rarotonga

Rarotonga, Îles Cook

latitude: 21-12S, longitude: 159-49W, altitude: 7 m

Observation

Le bulletin a été fait il y a 22 minutes, à 04:00 UTC
Vent 9 kt de ouest
Température 26°C
Humidité 89%
Pression 1013 hPa
Visibilité 10 km ou plus
Nuages épars à une hauteur de 1200 ft

METAR: NCRG 230400Z 27009KT 9999 SCT012 26/24 Q1013 RMK SPECI CONDX CEASED

Heure: 18:22 (04:22 UTC)

Prévision

Le bulletin a été fait il y a 5 heures et 0 minutes, à 23:22 UTC
Prévision valable du 23 à 00 UTC au 23 à 24 UTC
Vent 10 kt de nord-ouest
Visibilité 10 km ou plus
Nuages épars à une hauteur de 1800 ft
Nuages fragmentés à une hauteur de 8000 ft
faibles averses de pluie

TAF: NCRG 222322Z 2300/2324 32010KT 9999 -SHRA SCT018 BKN080

Observations et prévisions météorologiques de plus de 4000 aéroports (messages METAR et TAF).

Les stations disponibles sont représentées par des disques jaunes et rouges sur la carte.

Passer la souris dessus pour voir le nom de la station.

Cliquer dessus pour voir les observations et prévisions météorologiques.

Pour changer de carte: cliquez sur les boutons verts avec une croix noire pour zoomer, sur le bouton vert avec un tiret pour effectuer un zoom arrière, ou sur les flèches vertes pour les cartes adjacentes.


METAR-TAF: